sensor_id;sensor_type;location;lat;lon;timestamp;pressure;altitude;pressure_sealevel;temperature;humidity
41706;BME280;27385;51.096;17.190;2022-11-20T00:02:16;99992.86;;;-4.74;78.97
41706;BME280;27385;51.096;17.190;2022-11-20T00:04:48;99992.60;;;-4.77;78.56
41706;BME280;27385;51.096;17.190;2022-11-20T00:07:20;99997.17;;;-4.81;78.89
41706;BME280;27385;51.096;17.190;2022-11-20T00:09:51;99995.32;;;-4.80;79.16
41706;BME280;27385;51.096;17.190;2022-11-20T00:12:23;99996.79;;;-4.80;79.32
41706;BME280;27385;51.096;17.190;2022-11-20T00:14:55;99997.11;;;-4.79;79.32
41706;BME280;27385;51.096;17.190;2022-11-20T00:17:27;99992.30;;;-4.78;79.45
41706;BME280;27385;51.096;17.190;2022-11-20T00:19:58;99988.17;;;-4.76;79.49
41706;BME280;27385;51.096;17.190;2022-11-20T00:22:31;99988.10;;;-4.75;79.58
41706;BME280;27385;51.096;17.190;2022-11-20T00:25:02;99989.74;;;-4.75;79.58
41706;BME280;27385;51.096;17.190;2022-11-20T00:27:35;99985.31;;;-4.74;79.67
41706;BME280;27385;51.096;17.190;2022-11-20T00:30:08;99991.83;;;-4.75;79.60
41706;BME280;27385;51.096;17.190;2022-11-20T00:32:40;99993.63;;;-4.75;79.66
41706;BME280;27385;51.096;17.190;2022-11-20T00:35:12;99996.81;;;-4.76;79.78
41706;BME280;27385;51.096;17.190;2022-11-20T00:37:45;99994.32;;;-4.76;79.59
41706;BME280;27385;51.096;17.190;2022-11-20T00:40:16;99989.41;;;-4.78;79.57
41706;BME280;27385;51.096;17.190;2022-11-20T00:42:48;99992.67;;;-4.78;79.81
41706;BME280;27385;51.096;17.190;2022-11-20T00:45:21;99990.97;;;-4.77;79.82
41706;BME280;27385;51.096;17.190;2022-11-20T00:47:52;99991.05;;;-4.77;79.73
41706;BME280;27385;51.096;17.190;2022-11-20T00:50:24;99994.17;;;-4.76;79.67
41706;BME280;27385;51.096;17.190;2022-11-20T00:52:56;99994.33;;;-4.76;79.52
41706;BME280;27385;51.096;17.190;2022-11-20T00:55:28;99994.55;;;-4.77;79.61
41706;BME280;27385;51.096;17.190;2022-11-20T00:58:00;99997.90;;;-4.78;79.73
41706;BME280;27385;51.096;17.190;2022-11-20T01:00:31;99999.83;;;-4.79;79.42
41706;BME280;27385;51.096;17.190;2022-11-20T01:03:02;100003.70;;;-4.82;79.34
41706;BME280;27385;51.096;17.190;2022-11-20T01:05:37;100004.08;;;-4.85;79.37
41706;BME280;27385;51.096;17.190;2022-11-20T01:08:08;100011.32;;;-4.84;79.80
41706;BME280;27385;51.096;17.190;2022-11-20T01:10:40;100013.42;;;-4.84;79.66
41706;BME280;27385;51.096;17.190;2022-11-20T01:13:12;100009.60;;;-4.85;79.64
41706;BME280;27385;51.096;17.190;2022-11-20T01:16:05;100007.66;;;-4.86;79.61
41706;BME280;27385;51.096;17.190;2022-11-20T01:18:39;100009.52;;;-4.86;79.69
41706;BME280;27385;51.096;17.190;2022-11-20T01:21:13;100008.73;;;-4.89;79.36
41706;BME280;27385;51.096;17.190;2022-11-20T01:23:45;100012.36;;;-4.92;79.61
41706;BME280;27385;51.096;17.190;2022-11-20T01:26:19;100011.05;;;-4.92;79.77
41706;BME280;27385;51.096;17.190;2022-11-20T01:28:52;100011.43;;;-4.92;79.77
41706;BME280;27385;51.096;17.190;2022-11-20T01:31:25;100007.62;;;-4.94;79.81
41706;BME280;27385;51.096;17.190;2022-11-20T01:33:59;100005.27;;;-4.95;80.01
41706;BME280;27385;51.096;17.190;2022-11-20T01:36:31;100005.58;;;-4.97;79.91
41706;BME280;27385;51.096;17.190;2022-11-20T01:39:05;100004.04;;;-4.97;80.16
41706;BME280;27385;51.096;17.190;2022-11-20T01:41:37;100007.30;;;-4.97;80.25
41706;BME280;27385;51.096;17.190;2022-11-20T01:44:47;100006.11;;;-4.97;80.15
41706;BME280;27385;51.096;17.190;2022-11-20T01:47:23;100003.54;;;-5.00;80.02
41706;BME280;27385;51.096;17.190;2022-11-20T01:50:01;99999.70;;;-5.04;80.01
41706;BME280;27385;51.096;17.190;2022-11-20T01:52:36;99998.61;;;-5.06;80.30
41706;BME280;27385;51.096;17.190;2022-11-20T01:55:11;99997.13;;;-5.05;80.51
41706;BME280;27385;51.096;17.190;2022-11-20T01:57:45;99995.27;;;-5.05;80.40
41706;BME280;27385;51.096;17.190;2022-11-20T02:00:20;99993.45;;;-5.09;80.12
41706;BME280;27385;51.096;17.190;2022-11-20T02:02:56;99999.44;;;-5.10;80.39
41706;BME280;27385;51.096;17.190;2022-11-20T02:05:31;99997.57;;;-5.11;80.25
41706;BME280;27385;51.096;17.190;2022-11-20T02:08:05;99994.69;;;-5.12;80.31
41706;BME280;27385;51.096;17.190;2022-11-20T02:10:37;99994.14;;;-5.11;80.37
41706;BME280;27385;51.096;17.190;2022-11-20T02:13:09;99988.70;;;-5.10;80.47
41706;BME280;27385;51.096;17.190;2022-11-20T02:15:58;99989.72;;;-5.09;80.49
41706;BME280;27385;51.096;17.190;2022-11-20T02:18:30;99989.95;;;-5.09;80.48
41706;BME280;27385;51.096;17.190;2022-11-20T02:21:06;99986.59;;;-5.11;80.32
41706;BME280;27385;51.096;17.190;2022-11-20T02:26:14;99985.27;;;-5.14;80.25
41706;BME280;27385;51.096;17.190;2022-11-20T02:28:47;99985.32;;;-5.18;80.43
41706;BME280;27385;51.096;17.190;2022-11-20T02:31:19;99984.23;;;-5.18;80.44
41706;BME280;27385;51.096;17.190;2022-11-20T02:33:57;99989.33;;;-5.19;80.43
41706;BME280;27385;51.096;17.190;2022-11-20T02:36:29;99990.89;;;-5.21;80.48
41706;BME280;27385;51.096;17.190;2022-11-20T02:39:04;99992.83;;;-5.21;80.48
41706;BME280;27385;51.096;17.190;2022-11-20T02:41:37;99995.48;;;-5.22;80.48
41706;BME280;27385;51.096;17.190;2022-11-20T02:44:09;99992.20;;;-5.23;80.29
41706;BME280;27385;51.096;17.190;2022-11-20T02:46:40;99990.52;;;-5.28;80.39
41706;BME280;27385;51.096;17.190;2022-11-20T02:49:12;99991.61;;;-5.29;80.56
41706;BME280;27385;51.096;17.190;2022-11-20T02:51:44;99989.82;;;-5.30;80.49
41706;BME280;27385;51.096;17.190;2022-11-20T02:54:15;99987.96;;;-5.30;80.15
41706;BME280;27385;51.096;17.190;2022-11-20T02:56:46;99987.08;;;-5.33;79.98
41706;BME280;27385;51.096;17.190;2022-11-20T02:59:18;99990.94;;;-5.37;80.05
41706;BME280;27385;51.096;17.190;2022-11-20T03:01:49;99990.91;;;-5.41;79.91
41706;BME280;27385;51.096;17.190;2022-11-20T03:04:21;99996.87;;;-5.45;79.73
41706;BME280;27385;51.096;17.190;2022-11-20T03:06:52;99991.09;;;-5.49;80.08
41706;BME280;27385;51.096;17.190;2022-11-20T03:09:24;99994.05;;;-5.47;80.23
41706;BME280;27385;51.096;17.190;2022-11-20T03:11:56;99989.85;;;-5.47;80.53
41706;BME280;27385;51.096;17.190;2022-11-20T03:14:27;99983.41;;;-5.47;80.44
41706;BME280;27385;51.096;17.190;2022-11-20T03:17:01;99978.52;;;-5.47;80.47
41706;BME280;27385;51.096;17.190;2022-11-20T03:19:33;99982.85;;;-5.49;80.32
41706;BME280;27385;51.096;17.190;2022-11-20T03:22:05;99982.67;;;-5.51;80.40
41706;BME280;27385;51.096;17.190;2022-11-20T03:24:37;99981.27;;;-5.53;80.20
41706;BME280;27385;51.096;17.190;2022-11-20T03:27:08;99981.16;;;-5.54;80.32
41706;BME280;27385;51.096;17.190;2022-11-20T03:29:39;99981.80;;;-5.55;80.50
41706;BME280;27385;51.096;17.190;2022-11-20T03:32:11;99981.16;;;-5.54;80.52
41706;BME280;27385;51.096;17.190;2022-11-20T03:34:43;99981.55;;;-5.55;80.41
41706;BME280;27385;51.096;17.190;2022-11-20T03:37:14;99982.70;;;-5.59;80.10
41706;BME280;27385;51.096;17.190;2022-11-20T03:39:46;99986.34;;;-5.60;80.29
41706;BME280;27385;51.096;17.190;2022-11-20T03:42:18;99979.87;;;-5.62;80.22
41706;BME280;27385;51.096;17.190;2022-11-20T03:45:08;99982.90;;;-5.62;80.41
41706;BME280;27385;51.096;17.190;2022-11-20T03:47:39;99982.98;;;-5.63;80.48
41706;BME280;27385;51.096;17.190;2022-11-20T03:50:13;99983.60;;;-5.63;80.29
41706;BME280;27385;51.096;17.190;2022-11-20T03:52:45;99980.61;;;-5.67;80.15
41706;BME280;27385;51.096;17.190;2022-11-20T03:55:16;99978.19;;;-5.69;79.96
41706;BME280;27385;51.096;17.190;2022-11-20T03:57:48;99981.74;;;-5.70;80.19
41706;BME280;27385;51.096;17.190;2022-11-20T04:00:20;99977.92;;;-5.73;80.09
41706;BME280;27385;51.096;17.190;2022-11-20T04:02:52;99981.30;;;-5.77;80.23
41706;BME280;27385;51.096;17.190;2022-11-20T04:05:25;99985.02;;;-5.79;79.97
41706;BME280;27385;51.096;17.190;2022-11-20T04:07:57;99991.55;;;-5.81;80.00
41706;BME280;27385;51.096;17.190;2022-11-20T04:10:28;99987.48;;;-5.82;79.92
41706;BME280;27385;51.096;17.190;2022-11-20T04:13:00;99990.84;;;-5.85;80.12
41706;BME280;27385;51.096;17.190;2022-11-20T04:15:32;99992.90;;;-5.89;79.84
41706;BME280;27385;51.096;17.190;2022-11-20T04:18:04;99991.23;;;-5.90;80.17
41706;BME280;27385;51.096;17.190;2022-11-20T04:20:35;99991.53;;;-5.92;79.70
41706;BME280;27385;51.096;17.190;2022-11-20T04:23:06;99988.30;;;-5.99;79.37
41706;BME280;27385;51.096;17.190;2022-11-20T04:25:38;99986.54;;;-6.04;79.77
41706;BME280;27385;51.096;17.190;2022-11-20T04:28:09;99990.73;;;-6.04;80.07
41706;BME280;27385;51.096;17.190;2022-11-20T04:30:43;99988.17;;;-6.04;80.07
41706;BME280;27385;51.096;17.190;2022-11-20T04:33:15;99985.26;;;-6.08;80.04
41706;BME280;27385;51.096;17.190;2022-11-20T04:35:48;99988.13;;;-6.15;80.24
41706;BME280;27385;51.096;17.190;2022-11-20T04:38:21;99990.77;;;-6.16;80.60
41706;BME280;27385;51.096;17.190;2022-11-20T04:40:57;99989.37;;;-6.15;80.70
41706;BME280;27385;51.096;17.190;2022-11-20T04:43:29;99984.01;;;-6.16;80.30
41706;BME280;27385;51.096;17.190;2022-11-20T04:46:01;99984.04;;;-6.21;80.24
41706;BME280;27385;51.096;17.190;2022-11-20T04:48:34;99982.23;;;-6.22;80.53
41706;BME280;27385;51.096;17.190;2022-11-20T04:51:06;99979.23;;;-6.21;80.72
41706;BME280;27385;51.096;17.190;2022-11-20T04:53:38;99978.69;;;-6.20;80.73
41706;BME280;27385;51.096;17.190;2022-11-20T04:56:11;99973.58;;;-6.20;80.67
41706;BME280;27385;51.096;17.190;2022-11-20T04:58:43;99971.18;;;-6.19;80.43
41706;BME280;27385;51.096;17.190;2022-11-20T05:01:16;99969.52;;;-6.20;80.44
41706;BME280;27385;51.096;17.190;2022-11-20T05:03:51;99970.33;;;-6.25;79.98
41706;BME280;27385;51.096;17.190;2022-11-20T05:06:24;99964.92;;;-6.31;80.09
41706;BME280;27385;51.096;17.190;2022-11-20T05:08:55;99960.31;;;-6.34;80.05
41706;BME280;27385;51.096;17.190;2022-11-20T05:11:28;99957.74;;;-6.36;80.33
41706;BME280;27385;51.096;17.190;2022-11-20T05:14:00;99953.54;;;-6.35;80.42
41706;BME280;27385;51.096;17.190;2022-11-20T05:16:33;99947.81;;;-6.35;80.71
41706;BME280;27385;51.096;17.190;2022-11-20T05:19:05;99951.17;;;-6.32;80.89
41706;BME280;27385;51.096;17.190;2022-11-20T05:21:36;99947.13;;;-6.33;80.49
41706;BME280;27385;51.096;17.190;2022-11-20T05:24:08;99946.71;;;-6.37;80.40
41706;BME280;27385;51.096;17.190;2022-11-20T05:26:40;99947.41;;;-6.36;80.67
41706;BME280;27385;51.096;17.190;2022-11-20T05:29:12;99945.79;;;-6.35;80.77
41706;BME280;27385;51.096;17.190;2022-11-20T05:31:44;99949.96;;;-6.36;80.41
41706;BME280;27385;51.096;17.190;2022-11-20T05:34:16;99944.05;;;-6.39;80.25
41706;BME280;27385;51.096;17.190;2022-11-20T05:36:47;99947.77;;;-6.40;80.42
41706;BME280;27385;51.096;17.190;2022-11-20T05:39:19;99945.58;;;-6.41;80.64
41706;BME280;27385;51.096;17.190;2022-11-20T05:41:50;99943.71;;;-6.40;80.70
41706;BME280;27385;51.096;17.190;2022-11-20T05:44:42;99939.00;;;-6.39;80.84
41706;BME280;27385;51.096;17.190;2022-11-20T05:47:13;99941.80;;;-6.38;80.95
41706;BME280;27385;51.096;17.190;2022-11-20T05:49:47;99939.70;;;-6.38;80.93
41706;BME280;27385;51.096;17.190;2022-11-20T05:52:19;99942.28;;;-6.36;81.08
41706;BME280;27385;51.096;17.190;2022-11-20T05:54:50;99942.45;;;-6.35;81.00
41706;BME280;27385;51.096;17.190;2022-11-20T05:57:21;99945.64;;;-6.34;81.07
41706;BME280;27385;51.096;17.190;2022-11-20T05:59:53;99944.72;;;-6.34;80.98
41706;BME280;27385;51.096;17.190;2022-11-20T06:02:25;99939.92;;;-6.32;80.97
41706;BME280;27385;51.096;17.190;2022-11-20T06:04:56;99935.56;;;-6.33;80.84
41706;BME280;27385;51.096;17.190;2022-11-20T06:07:27;99934.87;;;-6.33;80.82
41706;BME280;27385;51.096;17.190;2022-11-20T06:09:59;99928.26;;;-6.34;80.65
41706;BME280;27385;51.096;17.190;2022-11-20T06:15:04;99933.20;;;-6.36;80.82
41706;BME280;27385;51.096;17.190;2022-11-20T06:17:35;99927.85;;;-6.36;80.89
41706;BME280;27385;51.096;17.190;2022-11-20T06:20:09;99928.15;;;-6.37;80.83
41706;BME280;27385;51.096;17.190;2022-11-20T06:22:40;99924.04;;;-6.38;81.12
41706;BME280;27385;51.096;17.190;2022-11-20T06:25:12;99925.59;;;-6.37;80.93
41706;BME280;27385;51.096;17.190;2022-11-20T06:27:44;99923.88;;;-6.37;80.82
41706;BME280;27385;51.096;17.190;2022-11-20T06:30:16;99922.17;;;-6.38;80.75
41706;BME280;27385;51.096;17.190;2022-11-20T06:32:47;99918.29;;;-6.38;80.77
41706;BME280;27385;51.096;17.190;2022-11-20T06:35:19;99918.13;;;-6.40;80.55
41706;BME280;27385;51.096;17.190;2022-11-20T06:37:52;99917.23;;;-6.43;80.56
41706;BME280;27385;51.096;17.190;2022-11-20T06:40:23;99921.31;;;-6.45;80.72
41706;BME280;27385;51.096;17.190;2022-11-20T06:42:56;99920.07;;;-6.46;80.77
41706;BME280;27385;51.096;17.190;2022-11-20T06:45:29;99920.16;;;-6.46;80.97
41706;BME280;27385;51.096;17.190;2022-11-20T06:48:02;99923.11;;;-6.44;81.15
41706;BME280;27385;51.096;17.190;2022-11-20T06:50:34;99922.30;;;-6.41;81.30
41706;BME280;27385;51.096;17.190;2022-11-20T06:53:06;99921.71;;;-6.37;81.51
41706;BME280;27385;51.096;17.190;2022-11-20T06:55:41;99921.89;;;-6.35;81.41
41706;BME280;27385;51.096;17.190;2022-11-20T06:58:14;99925.91;;;-6.36;81.47
41706;BME280;27385;51.096;17.190;2022-11-20T07:00:45;99925.30;;;-6.36;81.59
41706;BME280;27385;51.096;17.190;2022-11-20T07:03:17;99927.02;;;-6.34;81.58
41706;BME280;27385;51.096;17.190;2022-11-20T07:05:50;99929.59;;;-6.33;81.55
41706;BME280;27385;51.096;17.190;2022-11-20T07:08:21;99935.81;;;-6.31;81.55
41706;BME280;27385;51.096;17.190;2022-11-20T07:10:56;99938.60;;;-6.31;81.49
41706;BME280;27385;51.096;17.190;2022-11-20T07:13:28;99942.11;;;-6.30;81.47
41706;BME280;27385;51.096;17.190;2022-11-20T07:16:03;99941.19;;;-6.29;81.56
41706;BME280;27385;51.096;17.190;2022-11-20T07:18:35;99938.25;;;-6.28;81.52
41706;BME280;27385;51.096;17.190;2022-11-20T07:21:08;99939.30;;;-6.24;81.69
41706;BME280;27385;51.096;17.190;2022-11-20T07:23:40;99936.38;;;-6.21;81.89
41706;BME280;27385;51.096;17.190;2022-11-20T07:26:12;99930.13;;;-6.18;82.09
41706;BME280;27385;51.096;17.190;2022-11-20T07:28:47;99931.10;;;-6.14;82.21
41706;BME280;27385;51.096;17.190;2022-11-20T07:31:19;99922.27;;;-6.10;82.35
41706;BME280;27385;51.096;17.190;2022-11-20T07:33:51;99917.09;;;-6.08;82.58
41706;BME280;27385;51.096;17.190;2022-11-20T07:36:26;99914.88;;;-6.04;82.69
41706;BME280;27385;51.096;17.190;2022-11-20T07:38:58;99913.11;;;-6.01;82.94
41706;BME280;27385;51.096;17.190;2022-11-20T07:41:30;99917.10;;;-5.97;82.95
41706;BME280;27385;51.096;17.190;2022-11-20T07:44:02;99916.11;;;-5.94;82.96
41706;BME280;27385;51.096;17.190;2022-11-20T07:46:36;99913.27;;;-5.91;83.01
41706;BME280;27385;51.096;17.190;2022-11-20T07:49:08;99913.84;;;-5.86;83.06
41706;BME280;27385;51.096;17.190;2022-11-20T07:51:40;99911.52;;;-5.84;83.02
41706;BME280;27385;51.096;17.190;2022-11-20T07:54:13;99911.38;;;-5.81;82.98
41706;BME280;27385;51.096;17.190;2022-11-20T07:56:45;99906.20;;;-5.78;83.11
41706;BME280;27385;51.096;17.190;2022-11-20T07:59:18;99901.71;;;-5.72;83.31
41706;BME280;27385;51.096;17.190;2022-11-20T08:01:49;99900.75;;;-5.69;83.55
41706;BME280;27385;51.096;17.190;2022-11-20T08:04:21;99903.33;;;-5.65;83.60
41706;BME280;27385;51.096;17.190;2022-11-20T08:06:54;99905.92;;;-5.59;83.61
41706;BME280;27385;51.096;17.190;2022-11-20T08:09:27;99904.31;;;-5.54;83.66
41706;BME280;27385;51.096;17.190;2022-11-20T08:11:59;99904.12;;;-5.50;83.75
41706;BME280;27385;51.096;17.190;2022-11-20T08:14:48;99901.84;;;-5.44;84.01
41706;BME280;27385;51.096;17.190;2022-11-20T08:17:20;99899.91;;;-5.37;84.25
41706;BME280;27385;51.096;17.190;2022-11-20T08:19:52;99897.70;;;-5.31;84.29
41706;BME280;27385;51.096;17.190;2022-11-20T08:22:23;99899.04;;;-5.26;84.23
41706;BME280;27385;51.096;17.190;2022-11-20T08:24:55;99897.90;;;-5.21;84.21
41706;BME280;27385;51.096;17.190;2022-11-20T08:27:27;99898.70;;;-5.15;84.39
41706;BME280;27385;51.096;17.190;2022-11-20T08:29:59;99894.38;;;-5.10;84.65
41706;BME280;27385;51.096;17.190;2022-11-20T08:32:30;99892.85;;;-5.04;84.71
41706;BME280;27385;51.096;17.190;2022-11-20T08:35:02;99887.04;;;-4.97;84.55
41706;BME280;27385;51.096;17.190;2022-11-20T08:37:34;99884.02;;;-4.92;84.39
41706;BME280;27385;51.096;17.190;2022-11-20T08:40:10;99879.38;;;-4.86;84.62
41706;BME280;27385;51.096;17.190;2022-11-20T08:42:48;99876.91;;;-4.78;84.71
41706;BME280;27385;51.096;17.190;2022-11-20T08:45:20;99879.80;;;-4.71;84.77
41706;BME280;27385;51.096;17.190;2022-11-20T08:47:53;99875.30;;;-4.65;84.94
41706;BME280;27385;51.096;17.190;2022-11-20T08:50:25;99878.20;;;-4.60;84.92
41706;BME280;27385;51.096;17.190;2022-11-20T08:53:01;99875.88;;;-4.53;84.81
41706;BME280;27385;51.096;17.190;2022-11-20T08:55:32;99873.39;;;-4.48;84.88
41706;BME280;27385;51.096;17.190;2022-11-20T08:58:06;99871.30;;;-4.43;84.80
41706;BME280;27385;51.096;17.190;2022-11-20T09:00:38;99876.30;;;-4.37;84.89
41706;BME280;27385;51.096;17.190;2022-11-20T09:03:10;99876.15;;;-4.30;85.06
41706;BME280;27385;51.096;17.190;2022-11-20T09:05:43;99877.94;;;-4.22;85.37
41706;BME280;27385;51.096;17.190;2022-11-20T09:08:14;99873.65;;;-4.14;85.31
41706;BME280;27385;51.096;17.190;2022-11-20T09:10:46;99872.64;;;-4.07;85.33
41706;BME280;27385;51.096;17.190;2022-11-20T09:13:22;99866.65;;;-4.00;85.27
41706;BME280;27385;51.096;17.190;2022-11-20T09:15:59;99869.05;;;-3.94;85.28
41706;BME280;27385;51.096;17.190;2022-11-20T09:18:31;99866.25;;;-3.88;85.27
41706;BME280;27385;51.096;17.190;2022-11-20T09:21:04;99860.65;;;-3.83;85.31
41706;BME280;27385;51.096;17.190;2022-11-20T09:23:41;99858.67;;;-3.77;85.09
41706;BME280;27385;51.096;17.190;2022-11-20T09:26:13;99864.98;;;-3.71;85.17
41706;BME280;27385;51.096;17.190;2022-11-20T09:28:45;99862.55;;;-3.65;85.14
41706;BME280;27385;51.096;17.190;2022-11-20T09:31:23;99855.92;;;-3.58;85.00
41706;BME280;27385;51.096;17.190;2022-11-20T09:33:56;99850.98;;;-3.51;84.87
41706;BME280;27385;51.096;17.190;2022-11-20T09:36:27;99841.92;;;-3.45;84.88
41706;BME280;27385;51.096;17.190;2022-11-20T09:38:59;99845.41;;;-3.38;84.88
41706;BME280;27385;51.096;17.190;2022-11-20T09:41:49;99840.95;;;-3.32;84.93
41706;BME280;27385;51.096;17.190;2022-11-20T09:44:40;99842.88;;;-3.25;84.96
41706;BME280;27385;51.096;17.190;2022-11-20T09:47:20;99845.25;;;-3.16;84.92
41706;BME280;27385;51.096;17.190;2022-11-20T09:50:02;99841.79;;;-3.08;84.78
41706;BME280;27385;51.096;17.190;2022-11-20T09:52:45;99835.52;;;-3.01;84.91
41706;BME280;27385;51.096;17.190;2022-11-20T09:55:20;99828.46;;;-2.96;84.87
41706;BME280;27385;51.096;17.190;2022-11-20T09:57:52;99820.09;;;-2.91;84.68
41706;BME280;27385;51.096;17.190;2022-11-20T10:00:25;99818.41;;;-2.85;84.61
41706;BME280;27385;51.096;17.190;2022-11-20T10:03:03;99817.36;;;-2.78;84.55
41706;BME280;27385;51.096;17.190;2022-11-20T10:05:39;99816.77;;;-2.71;84.27
41706;BME280;27385;51.096;17.190;2022-11-20T10:08:19;99819.52;;;-2.62;84.44
41706;BME280;27385;51.096;17.190;2022-11-20T10:10:56;99823.08;;;-2.56;84.49
41706;BME280;27385;51.096;17.190;2022-11-20T10:13:38;99821.15;;;-2.49;84.15
41706;BME280;27385;51.096;17.190;2022-11-20T10:16:21;99821.16;;;-2.40;84.32
41706;BME280;27385;51.096;17.190;2022-11-20T10:19:05;99816.61;;;-2.36;84.20
41706;BME280;27385;51.096;17.190;2022-11-20T10:21:52;99809.75;;;-2.29;84.30
41706;BME280;27385;51.096;17.190;2022-11-20T10:24:41;99810.95;;;-2.22;84.30
41706;BME280;27385;51.096;17.190;2022-11-20T10:27:27;99806.75;;;-2.16;84.31
41706;BME280;27385;51.096;17.190;2022-11-20T10:30:07;99798.86;;;-2.08;84.02
41706;BME280;27385;51.096;17.190;2022-11-20T10:32:41;99795.73;;;-2.00;83.80
41706;BME280;27385;51.096;17.190;2022-11-20T10:35:21;99787.38;;;-1.91;83.78
41706;BME280;27385;51.096;17.190;2022-11-20T10:37:57;99784.88;;;-1.84;83.77
41706;BME280;27385;51.096;17.190;2022-11-20T10:40:34;99780.90;;;-1.77;83.74
41706;BME280;27385;51.096;17.190;2022-11-20T10:43:10;99774.67;;;-1.72;83.61
41706;BME280;27385;51.096;17.190;2022-11-20T10:45:51;99769.29;;;-1.66;83.48
41706;BME280;27385;51.096;17.190;2022-11-20T10:48:25;99768.71;;;-1.58;83.26
41706;BME280;27385;51.096;17.190;2022-11-20T10:51:11;99770.37;;;-1.52;83.22
41706;BME280;27385;51.096;17.190;2022-11-20T10:53:55;99774.66;;;-1.44;83.13
41706;BME280;27385;51.096;17.190;2022-11-20T10:56:33;99771.50;;;-1.36;82.97
41706;BME280;27385;51.096;17.190;2022-11-20T10:59:19;99772.52;;;-1.29;83.16
41706;BME280;27385;51.096;17.190;2022-11-20T11:01:57;99774.73;;;-1.25;82.84
41706;BME280;27385;51.096;17.190;2022-11-20T11:04:35;99773.35;;;-1.21;82.90
41706;BME280;27385;51.096;17.190;2022-11-20T11:07:12;99773.61;;;-1.17;82.69
41706;BME280;27385;51.096;17.190;2022-11-20T11:09:49;99769.52;;;-1.10;82.55
41706;BME280;27385;51.096;17.190;2022-11-20T11:12:22;99764.28;;;-1.04;82.57
41706;BME280;27385;51.096;17.190;2022-11-20T11:14:56;99758.55;;;-0.98;82.72
41706;BME280;27385;51.096;17.190;2022-11-20T11:17:30;99753.95;;;-0.93;82.44
41706;BME280;27385;51.096;17.190;2022-11-20T11:20:14;99755.77;;;-0.89;82.18
41706;BME280;27385;51.096;17.190;2022-11-20T11:22:49;99753.92;;;-0.85;81.83
41706;BME280;27385;51.096;17.190;2022-11-20T11:25:31;99750.98;;;-0.78;82.03
41706;BME280;27385;51.096;17.190;2022-11-20T11:28:22;99746.46;;;-0.74;82.11
41706;BME280;27385;51.096;17.190;2022-11-20T11:30:57;99749.48;;;-0.71;81.75
41706;BME280;27385;51.096;17.190;2022-11-20T11:33:30;99741.89;;;-0.66;81.69
41706;BME280;27385;51.096;17.190;2022-11-20T11:36:15;99736.78;;;-0.61;81.56
41706;BME280;27385;51.096;17.190;2022-11-20T11:38:52;99732.55;;;-0.57;81.71
41706;BME280;27385;51.096;17.190;2022-11-20T11:41:27;99730.89;;;-0.54;82.01
41706;BME280;27385;51.096;17.190;2022-11-20T11:44:12;99717.59;;;-0.51;81.94
41706;BME280;27385;51.096;17.190;2022-11-20T11:47:08;99712.14;;;-0.48;81.95
41706;BME280;27385;51.096;17.190;2022-11-20T11:49:41;99710.67;;;-0.46;81.57
41706;BME280;27385;51.096;17.190;2022-11-20T11:52:15;99716.08;;;-0.41;81.33
41706;BME280;27385;51.096;17.190;2022-11-20T11:54:52;99709.02;;;-0.36;81.07
41706;BME280;27385;51.096;17.190;2022-11-20T11:57:28;99702.13;;;-0.31;80.86
41706;BME280;27385;51.096;17.190;2022-11-20T12:00:06;99702.05;;;-0.27;80.44
41706;BME280;27385;51.096;17.190;2022-11-20T12:03:00;99696.55;;;-0.22;80.66
41706;BME280;27385;51.096;17.190;2022-11-20T12:05:40;99692.30;;;-0.17;80.31
41706;BME280;27385;51.096;17.190;2022-11-20T12:08:17;99688.33;;;-0.14;80.00
41706;BME280;27385;51.096;17.190;2022-11-20T12:10:55;99690.98;;;-0.09;80.17
41706;BME280;27385;51.096;17.190;2022-11-20T12:13:39;99687.23;;;-0.06;79.57
41706;BME280;27385;51.096;17.190;2022-11-20T12:16:13;99680.79;;;-0.05;79.65
41706;BME280;27385;51.096;17.190;2022-11-20T12:18:46;99678.16;;;-0.02;79.54
41706;BME280;27385;51.096;17.190;2022-11-20T12:21:31;99680.17;;;-0.01;79.26
41706;BME280;27385;51.096;17.190;2022-11-20T12:24:15;99683.92;;;-0.01;79.40
41706;BME280;27385;51.096;17.190;2022-11-20T12:27:01;99682.23;;;0.02;79.46
41706;BME280;27385;51.096;17.190;2022-11-20T12:29:46;99684.69;;;0.05;79.52
41706;BME280;27385;51.096;17.190;2022-11-20T12:32:47;99684.70;;;0.08;79.40
41706;BME280;27385;51.096;17.190;2022-11-20T12:35:44;99681.77;;;0.10;79.24
41706;BME280;27385;51.096;17.190;2022-11-20T12:38:36;99681.39;;;0.13;79.40
41706;BME280;27385;51.096;17.190;2022-11-20T12:41:15;99685.29;;;0.14;79.39
41706;BME280;27385;51.096;17.190;2022-11-20T12:44:19;99688.52;;;0.18;79.45
41706;BME280;27385;51.096;17.190;2022-11-20T12:47:22;99687.94;;;0.19;79.31
41706;BME280;27385;51.096;17.190;2022-11-20T12:50:02;99686.70;;;0.22;79.25
41706;BME280;27385;51.096;17.190;2022-11-20T12:52:45;99678.65;;;0.25;79.13
41706;BME280;27385;51.096;17.190;2022-11-20T12:55:35;99676.16;;;0.27;79.12
41706;BME280;27385;51.096;17.190;2022-11-20T12:58:12;99673.98;;;0.30;79.17
41706;BME280;27385;51.096;17.190;2022-11-20T13:00:57;99670.26;;;0.32;79.15
41706;BME280;27385;51.096;17.190;2022-11-20T13:03:44;99671.08;;;0.34;78.93
41706;BME280;27385;51.096;17.190;2022-11-20T13:06:23;99670.88;;;0.36;78.82
41706;BME280;27385;51.096;17.190;2022-11-20T13:08:57;99666.85;;;0.38;78.44
41706;BME280;27385;51.096;17.190;2022-11-20T13:11:34;99664.38;;;0.39;78.17
41706;BME280;27385;51.096;17.190;2022-11-20T13:14:21;99660.70;;;0.39;78.18
41706;BME280;27385;51.096;17.190;2022-11-20T13:16:57;99651.07;;;0.38;77.85
41706;BME280;27385;51.096;17.190;2022-11-20T13:19:32;99650.54;;;0.38;77.33
41706;BME280;27385;51.096;17.190;2022-11-20T13:22:05;99644.11;;;0.37;77.23
41706;BME280;27385;51.096;17.190;2022-11-20T13:24:37;99636.83;;;0.37;77.48
41706;BME280;27385;51.096;17.190;2022-11-20T13:27:20;99631.41;;;0.36;77.51
41706;BME280;27385;51.096;17.190;2022-11-20T13:30:11;99627.33;;;0.37;77.39
41706;BME280;27385;51.096;17.190;2022-11-20T13:32:52;99619.01;;;0.37;77.33
41706;BME280;27385;51.096;17.190;2022-11-20T13:35:31;99618.22;;;0.37;77.18
41706;BME280;27385;51.096;17.190;2022-11-20T13:38:05;99616.05;;;0.36;77.19